Time;durP1;ratioP1;P1;durP2;ratioP2;P2;SDS_P1;SDS_P2;PMS_P1;PMS_P2;Temp;Humidity;BMP_temperature;BMP_pressure;BME280_temperature;BME280_humidity;BME280_pressure;Samples;Min_cycle;Max_cycle;Signal;HPM_P1;HPM_P2
2021/01/01 00:00:29;;;;;;;40.50;21.25;;;6.00;96.90;;;;;;5071422;28;20076;-75
2021/01/01 00:02:54;;;;;;;48.20;21.27;;;5.90;96.90;;;;;;5073145;28;20056;-76
2021/01/01 00:05:20;;;;;;;46.92;22.17;;;6.00;96.90;;;;;;5070662;28;20044;-74
2021/01/01 00:07:46;;;;;;;40.08;19.23;;;6.10;96.90;;;;;;5071885;28;20037;-76
2021/01/01 00:10:13;;;;;;;41.95;20.27;;;6.10;96.80;;;;;;5071688;28;20067;-74
2021/01/01 00:12:38;;;;;;;41.78;19.95;;;6.10;96.90;;;;;;5070640;28;20522;-76
2021/01/01 00:15:05;;;;;;;50.15;22.20;;;5.90;96.90;;;;;;5073207;28;20115;-76
2021/01/01 00:17:31;;;;;;;45.97;22.73;;;5.90;97.00;;;;;;5051754;28;20045;-74
2021/01/01 00:19:58;;;;;;;43.20;21.73;;;6.00;97.00;;;;;;5051654;28;20454;-74
2021/01/01 00:22:24;;;;;;;44.67;21.10;;;6.00;96.90;;;;;;5050557;28;20041;-74
2021/01/01 00:24:49;;;;;;;46.15;22.33;;;6.10;97.00;;;;;;5056339;28;20051;-75
2021/01/01 00:27:16;;;;;;;45.50;22.42;;;6.00;97.00;;;;;;5071627;28;20056;-75
2021/01/01 00:29:41;;;;;;;44.55;21.92;;;5.90;97.10;;;;;;5072055;28;20029;-75
2021/01/01 00:32:08;;;;;;;48.33;23.45;;;6.00;97.10;;;;;;5071520;28;20039;-75
2021/01/01 00:34:33;;;;;;;48.63;22.45;;;6.00;97.00;;;;;;5071219;28;20041;-75
2021/01/01 00:37:00;;;;;;;49.00;23.13;;;6.10;96.90;;;;;;5071320;28;20053;-74
2021/01/01 00:39:25;;;;;;;48.00;23.73;;;6.00;96.90;;;;;;5071320;28;20060;-75
2021/01/01 00:41:51;;;;;;;47.15;23.23;;;5.90;97.10;;;;;;5072815;28;20055;-75
2021/01/01 00:44:17;;;;;;;50.28;25.27;;;6.00;97.10;;;;;;5071627;28;20032;-74
2021/01/01 00:46:43;;;;;;;43.92;20.55;;;5.90;97.00;;;;;;5071421;28;20033;-75
2021/01/01 00:49:08;;;;;;;37.60;20.70;;;5.80;97.00;;;;;;5071263;28;20056;-74
2021/01/01 00:51:34;;;;;;;42.10;20.73;;;5.90;97.10;;;;;;5071229;28;20458;-74
2021/01/01 00:54:00;;;;;;;46.38;21.38;;;6.00;97.10;;;;;;5071800;28;20024;-76
2021/01/01 00:56:27;;;;;;;40.88;20.55;;;6.00;97.10;;;;;;5071229;28;20037;-74
2021/01/01 00:58:55;;;;;;;40.85;20.23;;;5.90;97.00;;;;;;5071307;28;20032;-74
2021/01/01 01:01:26;;;;;;;44.22;21.05;;;5.80;97.10;;;;;;5071496;28;20477;-75
2021/01/01 01:03:53;;;;;;;36.65;18.75;;;5.80;97.30;;;;;;5071525;28;20120;-75
2021/01/01 01:06:19;;;;;;;42.30;19.00;;;5.80;97.20;;;;;;5073855;28;20479;-73
2021/01/01 01:08:46;;;;;;;42.17;18.70;;;5.80;97.30;;;;;;5075683;28;20028;-75
2021/01/01 01:11:12;;;;;;;39.28;18.60;;;5.80;97.20;;;;;;5075017;28;20048;-75
2021/01/01 01:13:38;;;;;;;40.97;18.60;;;5.70;97.30;;;;;;5075109;28;20024;-74
2021/01/01 01:16:05;;;;;;;35.95;18.50;;;5.70;97.30;;;;;;5074852;28;20149;-74
2021/01/01 01:18:31;;;;;;;39.17;18.70;;;5.90;97.30;;;;;;5075057;28;20116;-74
2021/01/01 01:20:57;;;;;;;40.72;19.40;;;5.80;97.20;;;;;;5076298;28;20530;-75
2021/01/01 01:23:23;;;;;;;38.55;19.58;;;5.70;97.30;;;;;;5056032;28;20060;-76
2021/01/01 01:25:49;;;;;;;35.83;18.90;;;5.70;97.30;;;;;;5054524;28;20045;-75
2021/01/01 01:28:17;;;;;;;37.65;17.75;;;5.70;97.30;;;;;;5054769;28;20033;-75
2021/01/01 01:30:42;;;;;;;37.70;17.25;;;5.50;97.30;;;;;;5054593;28;20355;-75
2021/01/01 01:33:08;;;;;;;36.08;18.95;;;5.40;97.30;;;;;;5054735;28;20025;-74
2021/01/01 01:35:35;;;;;;;32.05;16.60;;;5.40;97.50;;;;;;5055895;28;20370;-75
2021/01/01 01:38:01;;;;;;;30.10;15.52;;;5.30;97.40;;;;;;5053348;28;20033;-75
2021/01/01 01:40:27;;;;;;;29.83;15.70;;;5.10;97.60;;;;;;5053264;28;20047;-74
2021/01/01 01:42:53;;;;;;;31.83;16.13;;;5.10;97.70;;;;;;5054386;28;20117;-74
2021/01/01 01:45:19;;;;;;;33.13;16.95;;;5.00;97.80;;;;;;5054410;28;20458;-74
2021/01/01 01:47:45;;;;;;;30.45;16.35;;;5.00;97.70;;;;;;5055941;28;20052;-74
2021/01/01 01:50:12;;;;;;;32.42;16.35;;;4.90;97.80;;;;;;5054278;28;20524;-74
2021/01/01 01:52:38;;;;;;;32.38;16.90;;;4.80;97.90;;;;;;5054394;28;20040;-74
2021/01/01 01:55:04;;;;;;;29.77;16.15;;;4.60;98.00;;;;;;5053258;28;20086;-74
2021/01/01 01:57:32;;;;;;;34.28;16.55;;;4.70;98.10;;;;;;5053162;28;20064;-74
2021/01/01 02:00:08;;;;;;;36.53;17.52;;;4.60;98.10;;;;;;5055714;28;20116;-74
2021/01/01 02:02:34;;;;;;;35.35;18.25;;;4.50;98.20;;;;;;5053573;28;20052;-74
2021/01/01 02:05:00;;;;;;;41.03;20.13;;;4.60;98.30;;;;;;5053936;28;20367;-75
2021/01/01 02:07:26;;;;;;;43.40;20.90;;;4.60;98.10;;;;;;5054165;28;20037;-74
2021/01/01 02:09:51;;;;;;;42.13;21.65;;;4.60;98.00;;;;;;5053982;28;20044;-74
2021/01/01 02:12:17;;;;;;;51.50;22.48;;;4.40;98.00;;;;;;5053776;28;20090;-73
2021/01/01 02:14:43;;;;;;;48.30;22.05;;;4.50;98.40;;;;;;5055531;28;20041;-73
2021/01/01 02:17:09;;;;;;;49.78;23.05;;;4.50;98.00;;;;;;5052775;28;20036;-74
2021/01/01 02:19:35;;;;;;;48.33;23.50;;;4.50;98.00;;;;;;5053743;28;20144;-73
2021/01/01 02:22:01;;;;;;;60.05;24.95;;;4.50;98.00;;;;;;5060196;28;20033;-73
2021/01/01 02:24:27;;;;;;;51.08;24.80;;;4.60;98.10;;;;;;5073783;28;20182;-74
2021/01/01 02:26:53;;;;;;;48.92;24.40;;;4.50;98.00;;;;;;5075161;28;20450;-74
2021/01/01 02:29:18;;;;;;;53.28;25.00;;;4.50;97.90;;;;;;5073539;28;20036;-73
2021/01/01 02:31:44;;;;;;;53.65;25.85;;;4.50;97.90;;;;;;5073470;28;20322;-73
2021/01/01 02:34:10;;;;;;;51.17;25.50;;;4.30;98.00;;;;;;5072274;28;20040;-74
2021/01/01 02:36:35;;;;;;;52.38;25.00;;;4.30;98.20;;;;;;5073165;28;20075;-73
2021/01/01 02:39:01;;;;;;;56.33;25.85;;;4.40;98.10;;;;;;5074873;28;20104;-74
2021/01/01 02:41:27;;;;;;;54.70;25.80;;;4.40;98.00;;;;;;5073493;28;20036;-73
2021/01/01 02:43:53;;;;;;;59.97;26.23;;;4.30;98.00;;;;;;5073278;28;20033;-74
2021/01/01 02:46:18;;;;;;;55.72;26.20;;;4.30;98.20;;;;;;5073264;28;20617;-73
2021/01/01 02:48:44;;;;;;;56.60;25.63;;;4.40;98.10;;;;;;5072257;28;20109;-74
2021/01/01 02:51:09;;;;;;;53.83;25.65;;;4.30;98.00;;;;;;5072170;28;20020;-74
2021/01/01 02:53:35;;;;;;;60.70;28.02;;;4.40;98.00;;;;;;5074691;28;20024;-73
2021/01/01 02:56:02;;;;;;;61.05;28.48;;;4.30;98.00;;;;;;5073054;28;20037;-73
2021/01/01 02:58:28;;;;;;;61.43;29.47;;;4.20;98.10;;;;;;5071887;28;20446;-73
2021/01/01 03:00:53;;;;;;;59.58;29.27;;;4.00;98.00;;;;;;5072766;28;20094;-74
2021/01/01 03:03:19;;;;;;;59.00;28.80;;;4.00;98.10;;;;;;5072770;28;20085;-74
2021/01/01 03:05:46;;;;;;;64.43;30.00;;;4.10;98.10;;;;;;5073463;28;20036;-74
2021/01/01 03:08:12;;;;;;;63.13;29.83;;;4.20;98.00;;;;;;5072802;28;20037;-74
2021/01/01 03:10:37;;;;;;;61.38;30.23;;;4.00;97.90;;;;;;5072786;28;20120;-74
2021/01/01 03:13:03;;;;;;;69.10;30.25;;;4.00;97.90;;;;;;5072722;28;20459;-74
2021/01/01 03:15:29;;;;;;;65.38;32.22;;;4.00;97.90;;;;;;5072683;28;20049;-73
2021/01/01 03:17:55;;;;;;;61.78;30.60;;;3.90;97.90;;;;;;5074226;28;20069;-74
2021/01/01 03:20:21;;;;;;;70.28;32.13;;;3.80;97.90;;;;;;5072432;28;20154;-74
2021/01/01 03:22:46;;;;;;;62.25;30.40;;;3.70;97.90;;;;;;5072594;28;20086;-72
2021/01/01 03:25:12;;;;;;;65.60;31.30;;;3.80;98.10;;;;;;5072508;28;20032;-74
2021/01/01 03:27:38;;;;;;;65.97;31.25;;;3.70;98.00;;;;;;5068238;28;20037;-73
2021/01/01 03:30:06;;;;;;;70.15;30.25;;;3.70;98.10;;;;;;5054273;28;20474;-73
2021/01/01 03:32:32;;;;;;;64.75;29.77;;;3.70;98.10;;;;;;5072898;28;20466;-74
2021/01/01 03:34:58;;;;;;;69.22;31.33;;;3.70;97.90;;;;;;5057083;27;20106;-74
2021/01/01 03:37:24;;;;;;;64.50;30.98;;;3.70;98.00;;;;;;5050941;28;20390;-74
2021/01/01 03:39:50;;;;;;;67.50;29.75;;;3.60;98.00;;;;;;5052369;28;20049;-74
2021/01/01 03:42:15;;;;;;;55.33;28.65;;;3.60;98.00;;;;;;5051999;28;20039;-74
2021/01/01 03:44:41;;;;;;;62.70;29.30;;;3.60;98.00;;;;;;5053774;28;20036;-73
2021/01/01 03:47:06;;;;;;;61.72;29.75;;;3.50;98.00;;;;;;5052106;28;20051;-74
2021/01/01 03:49:32;;;;;;;60.90;29.80;;;3.50;97.90;;;;;;5062943;28;20024;-73
2021/01/01 03:51:58;;;;;;;60.55;28.10;;;3.50;98.00;;;;;;5072103;28;20024;-74
2021/01/01 03:54:24;;;;;;;58.78;28.17;;;3.50;98.00;;;;;;5072068;28;20032;-74
2021/01/01 03:56:49;;;;;;;53.10;27.30;;;3.40;98.10;;;;;;5073666;28;20021;-73
2021/01/01 03:59:15;;;;;;;54.88;26.77;;;3.40;98.10;;;;;;5072050;28;20041;-74
2021/01/01 04:01:41;;;;;;;58.10;27.77;;;3.40;98.10;;;;;;5071978;28;20048;-73
2021/01/01 04:04:06;;;;;;;61.63;28.67;;;3.40;98.10;;;;;;5072051;28;20036;-73
2021/01/01 04:06:32;;;;;;;61.50;29.33;;;3.40;98.10;;;;;;5072223;28;20060;-73
2021/01/01 04:08:57;;;;;;;61.17;28.50;;;3.40;98.10;;;;;;5073444;28;20071;-73
2021/01/01 04:11:23;;;;;;;57.30;27.48;;;3.40;98.20;;;;;;5072003;28;20364;-73
2021/01/01 04:13:49;;;;;;;59.38;27.48;;;3.40;98.20;;;;;;5070880;28;20036;-73
2021/01/01 04:16:14;;;;;;;58.58;26.92;;;3.30;98.20;;;;;;5071960;28;20211;-73
2021/01/01 04:18:40;;;;;;;58.90;27.83;;;3.40;98.30;;;;;;5071890;28;20120;-74
2021/01/01 04:21:07;;;;;;;59.85;29.85;;;3.40;98.30;;;;;;5073337;28;20032;-74
2021/01/01 04:23:34;;;;;;;64.00;29.80;;;3.30;98.30;;;;;;5072323;28;20024;-74
2021/01/01 04:26:00;;;;;;;59.47;28.15;;;3.30;98.40;;;;;;5071821;28;20190;-74
2021/01/01 04:28:26;;;;;;;61.80;28.92;;;3.40;98.40;;;;;;5071931;28;20486;-74
2021/01/01 04:30:52;;;;;;;63.28;28.25;;;3.40;98.50;;;;;;5071886;28;20036;-74
2021/01/01 04:33:17;;;;;;;63.50;28.50;;;3.40;98.40;;;;;;5071612;28;20445;-73
2021/01/01 04:35:43;;;;;;;56.47;28.05;;;3.60;98.40;;;;;;5073120;28;20048;-74
2021/01/01 04:38:08;;;;;;;64.40;27.85;;;3.60;98.50;;;;;;5071690;28;20119;-74
2021/01/01 04:40:34;;;;;;;63.90;28.23;;;3.60;98.20;;;;;;5073695;28;20044;-74
2021/01/01 04:43:00;;;;;;;61.80;27.98;;;3.60;98.30;;;;;;5075655;28;20044;-74
2021/01/01 04:45:27;;;;;;;56.05;28.35;;;3.60;98.30;;;;;;5075682;28;20454;-73
2021/01/01 04:47:53;;;;;;;56.83;28.77;;;3.50;98.40;;;;;;5077108;28;20454;-74
2021/01/01 04:50:19;;;;;;;60.10;29.13;;;3.50;98.40;;;;;;5075607;28;20053;-74
2021/01/01 04:52:49;;;;;;;56.97;27.15;;;3.60;98.50;;;;;;5075508;28;20063;-73
2021/01/01 04:55:16;;;;;;;65.70;28.08;;;3.60;98.70;;;;;;5075640;28;20067;-74
2021/01/01 04:57:41;;;;;;;59.33;28.30;;;3.50;98.70;;;;;;5075432;28;20035;-73
2021/01/01 05:00:08;;;;;;;60.85;29.90;;;3.60;98.80;;;;;;5075170;28;20351;-71
2021/01/01 05:02:33;;;;;;;59.53;28.38;;;3.50;98.60;;;;;;5076914;28;20020;-73
2021/01/01 05:04:59;;;;;;;56.45;26.88;;;3.60;98.60;;;;;;5075254;28;20052;-74
2021/01/01 05:07:27;;;;;;;54.60;27.63;;;3.60;98.60;;;;;;5075240;28;20067;-74
2021/01/01 05:09:53;;;;;;;57.15;27.77;;;3.60;98.60;;;;;;5075194;28;20450;-73
2021/01/01 05:12:18;;;;;;;51.47;26.05;;;3.70;98.70;;;;;;5075012;28;20025;-73
2021/01/01 05:14:44;;;;;;;57.17;28.17;;;3.60;98.60;;;;;;5076685;28;20035;-74
2021/01/01 05:17:10;;;;;;;59.60;28.55;;;3.60;98.60;;;;;;5073690;28;20043;-73
2021/01/01 05:19:42;;;;;;;57.17;26.77;;;3.70;98.70;;;;;;5061403;28;20422;-73
2021/01/01 05:22:10;;;;;;;57.90;28.25;;;3.60;98.70;;;;;;5054907;28;20029;-74
2021/01/01 05:24:42;;;;;;;57.15;27.38;;;3.60;98.70;;;;;;5054917;28;20033;-75
2021/01/01 05:27:11;;;;;;;62.40;29.23;;;3.70;98.90;;;;;;5054609;28;20028;-73
2021/01/01 05:29:55;;;;;;;51.08;25.23;;;3.60;98.80;;;;;;5056401;28;20370;-74
2021/01/01 05:32:23;;;;;;;58.05;26.77;;;3.70;98.90;;;;;;5054637;28;20036;-74
2021/01/01 05:34:49;;;;;;;46.35;23.83;;;3.80;98.80;;;;;;5054556;28;20037;-74
2021/01/01 05:37:34;;;;;;;54.63;25.92;;;3.90;99.00;;;;;;5054281;28;20111;-73
2021/01/01 05:40:11;;;;;;;52.92;26.08;;;3.90;98.90;;;;;;5054531;28;20063;-73
2021/01/01 05:42:37;;;;;;;52.70;26.80;;;3.90;98.80;;;;;;5054522;28;20463;-75
2021/01/01 05:45:17;;;;;;;50.63;26.10;;;3.90;98.90;;;;;;5056171;28;20028;-73
2021/01/01 05:48:03;;;;;;;54.08;26.10;;;4.00;98.80;;;;;;5054637;28;20037;-73
2021/01/01 05:50:28;;;;;;;54.42;26.25;;;4.10;98.80;;;;;;5053981;28;20032;-74
2021/01/01 05:53:17;;;;;;;50.78;25.73;;;4.00;98.80;;;;;;5053465;28;20041;-74
2021/01/01 05:55:45;;;;;;;49.65;24.52;;;4.10;98.80;;;;;;5054421;28;20064;-73
2021/01/01 05:58:37;;;;;;;;;;;4.20;98.80;;;;;;5054848;28;20147;-73
2021/01/01 06:01:03;;;;;;;47.58;23.15;;;4.20;98.80;;;;;;5052171;28;19919;-74
2021/01/01 06:03:33;;;;;;;39.40;20.88;;;4.10;98.90;;;;;;5053755;28;20124;-73
2021/01/01 06:06:04;;;;;;;39.42;21.38;;;4.20;98.90;;;;;;5055599;28;20458;-74
2021/01/01 06:08:30;;;;;;;46.22;21.27;;;4.30;99.00;;;;;;5054045;28;20118;-74
2021/01/01 06:11:01;;;;;;;49.70;22.00;;;4.40;98.90;;;;;;5052894;28;20540;-74
2021/01/01 06:13:32;;;;;;;38.58;19.52;;;4.30;98.80;;;;;;5053994;28;20040;-75
2021/01/01 06:16:00;;;;;;;46.67;20.58;;;4.40;98.80;;;;;;5052992;28;20033;-74
2021/01/01 06:18:27;;;;;;;;;;;4.40;98.90;;;;;;5054368;28;20104;-75
2021/01/01 06:21:00;;;;;;;44.42;19.58;;;4.50;98.90;;;;;;5055304;28;19908;-74
2021/01/01 06:23:37;;;;;;;39.00;20.17;;;4.40;98.80;;;;;;5053626;28;20091;-74
2021/01/01 06:26:06;;;;;;;41.20;19.77;;;4.50;98.90;;;;;;5053678;28;20029;-74
2021/01/01 06:28:34;;;;;;;36.97;19.13;;;4.50;98.80;;;;;;5053894;28;20041;-74
2021/01/01 06:31:04;;;;;;;38.55;18.85;;;4.40;98.80;;;;;;5060961;28;20138;-74
2021/01/01 06:33:32;;;;;;;43.13;20.35;;;4.40;99.00;;;;;;5073678;28;20040;-74
2021/01/01 06:35:58;;;;;;;43.33;20.60;;;4.40;99.10;;;;;;5074150;28;20052;-74
2021/01/01 06:38:41;;;;;;;41.00;19.55;;;4.40;99.10;;;;;;5073539;28;20336;-74
2021/01/01 06:41:42;;;;;;;36.63;18.20;;;4.60;99.00;;;;;;5072174;28;20051;-73
2021/01/01 06:44:08;;;;;;;34.88;17.67;;;4.60;99.00;;;;;;5073309;28;20041;-73
2021/01/01 06:46:38;;;;;;;34.25;18.25;;;4.70;98.90;;;;;;5073396;28;20036;-74
2021/01/01 06:49:06;;;;;;;30.77;15.50;;;4.70;99.10;;;;;;5073233;28;20120;-74
2021/01/01 06:51:32;;;;;;;29.35;15.98;;;4.80;98.80;;;;;;5072443;28;20047;-73
2021/01/01 06:54:14;;;;;;;28.15;15.48;;;4.70;98.80;;;;;;5074764;28;20369;-74
2021/01/01 06:56:43;;;;;;;32.53;15.98;;;4.80;98.70;;;;;;5073283;28;20348;-74
2021/01/01 06:59:15;;;;;;;29.65;15.73;;;5.00;98.80;;;;;;5071757;28;20048;-74
2021/01/01 07:01:45;;;;;;;34.47;17.38;;;4.80;98.60;;;;;;5072937;28;20043;-74
2021/01/01 07:04:12;;;;;;;39.28;19.00;;;4.90;98.70;;;;;;5071577;28;20060;-73
2021/01/01 07:06:39;;;;;;;35.63;18.37;;;4.80;98.60;;;;;;5073100;28;20470;-74
2021/01/01 07:09:07;;;;;;;33.80;17.58;;;4.70;98.60;;;;;;5074388;28;20021;-74
2021/01/01 07:11:37;;;;;;;34.13;16.67;;;4.90;98.80;;;;;;5073287;28;20136;-74
2021/01/01 07:14:11;;;;;;;30.48;16.30;;;4.70;98.70;;;;;;5072903;28;20032;-74
2021/01/01 07:16:39;;;;;;;33.13;17.38;;;4.60;98.70;;;;;;5072672;28;20068;-75
2021/01/01 07:19:05;;;;;;;35.65;17.40;;;4.60;98.80;;;;;;5072619;28;20060;-74
2021/01/01 07:21:31;;;;;;;35.65;16.90;;;4.60;98.90;;;;;;5072925;28;20035;-74
2021/01/01 07:23:57;;;;;;;31.58;16.98;;;4.70;98.90;;;;;;5074082;28;20025;-74
2021/01/01 07:26:30;;;;;;;32.92;16.10;;;4.80;98.70;;;;;;5071603;28;20037;-73
2021/01/01 07:28:59;;;;;;;32.70;16.52;;;4.70;98.70;;;;;;5072221;28;20108;-74
2021/01/01 07:31:24;;;;;;;34.85;16.40;;;4.80;98.70;;;;;;5071321;28;20091;-75
2021/01/01 07:33:50;;;;;;;30.08;15.30;;;4.80;98.70;;;;;;5072386;28;20068;-75
2021/01/01 07:36:17;;;;;;;32.28;16.45;;;4.70;98.60;;;;;;5069714;28;20052;-74
2021/01/01 07:38:48;;;;;;;28.65;14.25;;;4.70;98.70;;;;;;5074017;28;20025;-74
2021/01/01 07:41:16;;;;;;;32.20;15.65;;;4.70;98.80;;;;;;5072340;28;20084;-74
2021/01/01 07:43:42;;;;;;;30.98;15.45;;;4.70;98.80;;;;;;5072149;28;20466;-74
2021/01/01 07:46:10;;;;;;;29.83;15.10;;;4.70;98.90;;;;;;5071197;28;20037;-75
2021/01/01 07:48:36;;;;;;;30.63;16.08;;;4.80;98.80;;;;;;5072159;28;20071;-75
2021/01/01 07:51:07;;;;;;;32.28;15.27;;;4.70;98.80;;;;;;5072629;28;20056;-76
2021/01/01 07:53:34;;;;;;;29.40;14.50;;;4.60;98.80;;;;;;5072484;28;20131;-73
2021/01/01 07:56:04;;;;;;;29.23;14.35;;;4.60;98.90;;;;;;5072019;28;20086;-74
2021/01/01 07:58:31;;;;;;;27.85;14.13;;;4.50;99.00;;;;;;5071969;28;20028;-74
2021/01/01 08:01:07;;;;;;;28.13;14.43;;;4.50;99.20;;;;;;5071838;28;20049;-74
2021/01/01 08:03:35;;;;;;;25.65;13.25;;;4.50;99.20;;;;;;5072242;28;20063;-74
2021/01/01 08:06:01;;;;;;;29.50;14.33;;;4.40;99.20;;;;;;5073605;28;20359;-74
2021/01/01 08:08:27;;;;;;;25.08;12.95;;;4.50;99.20;;;;;;5072246;28;20036;-74
2021/01/01 08:10:55;;;;;;;33.97;13.95;;;4.50;99.30;;;;;;5071828;28;20351;-74
2021/01/01 08:13:26;;;;;;;27.02;14.32;;;4.60;99.30;;;;;;5071854;28;20450;-74
2021/01/01 08:16:09;;;;;;;27.58;13.98;;;4.60;99.10;;;;;;5070210;28;20123;-74
2021/01/01 08:18:35;;;;;;;25.00;13.10;;;4.60;99.10;;;;;;5070959;28;20032;-74
2021/01/01 08:21:03;;;;;;;24.73;14.13;;;4.60;99.10;;;;;;5073349;28;20024;-75
2021/01/01 08:23:37;;;;;;;;;;;4.60;99.10;;;;;;5072489;28;20454;-74
2021/01/01 08:26:05;;;;;;;28.83;13.98;;;4.60;99.10;;;;;;5071898;28;19909;-75
2021/01/01 08:28:32;;;;;;;37.28;14.52;;;4.70;99.20;;;;;;5070989;28;20473;-75
2021/01/01 08:31:07;;;;;;;27.35;13.90;;;4.80;99.00;;;;;;5071598;28;20040;-75
2021/01/01 08:33:43;;;;;;;24.15;12.82;;;4.80;98.90;;;;;;5071813;28;20083;-74
2021/01/01 08:36:10;;;;;;;24.75;13.35;;;4.80;98.70;;;;;;5071523;28;20033;-75
2021/01/01 08:38:40;;;;;;;27.05;13.52;;;4.90;98.80;;;;;;5073403;28;20033;-74
2021/01/01 08:41:06;;;;;;;29.15;14.38;;;4.80;98.90;;;;;;5071387;28;20413;-74
2021/01/01 08:43:32;;;;;;;27.05;13.93;;;4.70;98.80;;;;;;5071602;28;20071;-74
2021/01/01 08:45:58;;;;;;;27.70;13.85;;;4.60;99.10;;;;;;5070285;28;20072;-74
2021/01/01 08:48:29;;;;;;;29.73;14.82;;;4.70;99.10;;;;;;5070441;28;20160;-74
2021/01/01 08:50:55;;;;;;;29.95;13.88;;;4.80;99.00;;;;;;5073045;28;20013;-74
2021/01/01 08:53:21;;;;;;;26.48;13.60;;;4.90;98.90;;;;;;5071559;28;20119;-74
2021/01/01 08:55:58;;;;;;;28.27;13.98;;;4.90;98.80;;;;;;5071278;28;20115;-74
2021/01/01 08:58:24;;;;;;;31.77;15.90;;;4.80;98.80;;;;;;5070087;28;20033;-74
2021/01/01 09:00:49;;;;;;;28.27;13.77;;;4.90;98.80;;;;;;5071396;28;20113;-74
2021/01/01 09:03:17;;;;;;;27.05;14.07;;;4.70;98.80;;;;;;5071438;28;20032;-74
2021/01/01 09:05:44;;;;;;;30.15;14.65;;;4.90;98.90;;;;;;5073266;28;20109;-75
2021/01/01 09:08:15;;;;;;;24.88;13.20;;;4.90;98.80;;;;;;5071635;28;20170;-74
2021/01/01 09:10:45;;;;;;;27.33;15.38;;;4.80;98.80;;;;;;5071347;28;20029;-73
2021/01/01 09:13:26;;;;;;;28.38;14.85;;;4.80;98.80;;;;;;5071163;28;20115;-74
2021/01/01 09:16:04;;;;;;;30.92;14.63;;;4.90;98.80;;;;;;5071472;28;20036;-76
2021/01/01 09:18:31;;;;;;;30.70;14.55;;;4.90;98.80;;;;;;5070230;28;20037;-74
2021/01/01 09:21:13;;;;;;;25.60;13.63;;;5.00;98.70;;;;;;5072730;28;20115;-74
2021/01/01 09:23:41;;;;;;;28.48;14.63;;;5.10;98.80;;;;;;5051488;28;20041;-74
2021/01/01 09:26:07;;;;;;;32.03;15.73;;;5.10;98.60;;;;;;5051564;28;20033;-76
2021/01/01 09:28:34;;;;;;;28.48;15.15;;;5.30;98.60;;;;;;5054678;28;20033;-74
2021/01/01 09:31:00;;;;;;;25.75;13.27;;;5.30;98.40;;;;;;5054464;28;20039;-74
2021/01/01 09:33:26;;;;;;;27.45;14.45;;;5.30;98.40;;;;;;5054733;28;20032;-74
2021/01/01 09:35:52;;;;;;;26.10;14.07;;;5.40;98.40;;;;;;5056089;28;20106;-75
2021/01/01 09:38:18;;;;;;;27.80;13.50;;;5.40;98.30;;;;;;5053320;28;20041;-75
2021/01/01 09:40:43;;;;;;;24.35;13.00;;;5.40;98.10;;;;;;5054486;28;20355;-74
2021/01/01 09:43:09;;;;;;;25.15;13.13;;;5.40;98.10;;;;;;5054632;28;20110;-74
2021/01/01 09:45:36;;;;;;;28.88;13.82;;;5.40;98.00;;;;;;5054502;28;20055;-74
2021/01/01 09:48:03;;;;;;;25.77;12.85;;;5.30;98.10;;;;;;5055929;28;20033;-74
2021/01/01 09:50:29;;;;;;;22.33;12.20;;;5.40;98.20;;;;;;5053549;28;20045;-75
2021/01/01 09:52:55;;;;;;;39.22;19.30;;;5.40;98.10;;;;;;5068059;28;20379;-76
2021/01/01 09:55:21;;;;;;;34.78;16.52;;;5.40;98.10;;;;;;5074204;28;20045;-74
2021/01/01 09:57:47;;;;;;;25.35;13.40;;;5.50;98.10;;;;;;5074135;28;20098;-75
2021/01/01 10:00:15;;;;;;;26.85;12.98;;;5.60;98.10;;;;;;5074114;28;20189;-75
2021/01/01 10:02:41;;;;;;;24.30;12.40;;;5.70;97.80;;;;;;5075934;28;20020;-73
2021/01/01 10:05:08;;;;;;;25.90;12.60;;;5.90;97.80;;;;;;5074367;28;20060;-73
2021/01/01 10:07:34;;;;;;;25.25;11.73;;;6.00;97.50;;;;;;5074205;28;20092;-75
2021/01/01 10:10:00;;;;;;;24.38;11.48;;;6.00;97.30;;;;;;5073871;28;20101;-75
2021/01/01 10:12:26;;;;;;;21.38;10.65;;;6.10;97.10;;;;;;5074260;28;20358;-75
2021/01/01 10:14:55;;;;;;;22.63;11.10;;;6.10;96.90;;;;;;5074575;28;20036;-74
2021/01/01 10:17:24;;;;;;;22.17;10.38;;;6.10;96.80;;;;;;5055821;28;20454;-76
2021/01/01 10:19:50;;;;;;;21.88;10.75;;;6.10;96.60;;;;;;5053975;28;20052;-75
2021/01/01 10:22:17;;;;;;;23.88;10.57;;;6.00;96.50;;;;;;5052819;28;20371;-75
2021/01/01 10:24:46;;;;;;;26.27;11.30;;;6.00;96.60;;;;;;5053546;28;20116;-76
2021/01/01 10:27:13;;;;;;;25.13;11.75;;;6.10;96.60;;;;;;5052772;28;20031;-76
2021/01/01 10:29:39;;;;;;;22.17;11.23;;;6.10;96.60;;;;;;5055251;28;20049;-75
2021/01/01 10:32:13;;;;;;;23.45;10.70;;;6.20;96.80;;;;;;5069074;28;20029;-76
2021/01/01 10:34:43;;;;;;;21.77;10.38;;;6.40;96.60;;;;;;5072513;28;20045;-76
2021/01/01 10:37:12;;;;;;;28.27;10.50;;;6.50;96.40;;;;;;5072513;28;20475;-76
2021/01/01 10:39:38;;;;;;;21.80;10.95;;;6.60;96.30;;;;;;5073328;28;20113;-75
2021/01/01 10:42:05;;;;;;;25.25;11.00;;;6.60;96.00;;;;;;5075108;28;20020;-75
2021/01/01 10:44:31;;;;;;;21.65;11.18;;;6.80;96.20;;;;;;5073477;28;20454;-75
2021/01/01 10:46:57;;;;;;;24.88;11.93;;;6.90;96.00;;;;;;5073495;28;20051;-75
2021/01/01 10:49:23;;;;;;;22.05;10.88;;;7.20;95.70;;;;;;5073099;28;20071;-74
2021/01/01 10:51:50;;;;;;;22.73;11.38;;;7.30;95.40;;;;;;5072136;28;20123;-75
2021/01/01 10:54:16;;;;;;;27.75;12.93;;;7.40;95.40;;;;;;5073040;28;20024;-75
2021/01/01 10:56:44;;;;;;;28.13;13.27;;;7.50;95.70;;;;;;5073745;28;20086;-74
2021/01/01 10:59:10;;;;;;;26.92;12.98;;;7.50;95.20;;;;;;5072993;28;20051;-75
2021/01/01 11:01:35;;;;;;;25.75;12.65;;;7.60;95.20;;;;;;5072094;28;20374;-75
2021/01/01 11:04:01;;;;;;;23.90;11.88;;;7.70;95.10;;;;;;5072847;28;20040;-74
2021/01/01 11:06:27;;;;;;;22.42;12.50;;;7.70;94.90;;;;;;5071647;28;20070;-75
2021/01/01 11:08:53;;;;;;;20.75;9.68;;;7.90;94.90;;;;;;5073336;28;20032;-75
2021/01/01 11:11:25;;;;;;;20.45;10.27;;;7.90;94.60;;;;;;5072739;28;20028;-73
2021/01/01 11:13:55;;;;;;;15.50;8.20;;;8.10;94.00;;;;;;5072756;28;20040;-75
2021/01/01 12:25:17;;;;;;;9.50;5.38;;;9.10;91.50;;;;;;5051828;28;20079;-68
2021/01/01 12:27:43;;;;;;;11.95;5.45;;;8.90;91.00;;;;;;5051982;28;20033;-69
2021/01/01 12:30:11;;;;;;;12.77;5.50;;;8.70;90.90;;;;;;5051721;28;20470;-69
2021/01/01 12:32:41;;;;;;;10.57;5.32;;;8.70;91.30;;;;;;5053305;28;20025;-69
2021/01/01 12:35:08;;;;;;;16.27;5.40;;;8.60;91.60;;;;;;5051652;28;20063;-65
2021/01/01 12:37:35;;;;;;;13.45;5.90;;;8.30;91.60;;;;;;5051421;28;20072;-66
2021/01/01 12:40:03;;;;;;;11.30;4.70;;;8.50;92.30;;;;;;5051843;28;20069;-64
2021/01/01 12:42:29;;;;;;;12.88;4.70;;;8.80;92.00;;;;;;5051769;28;20049;-66
2021/01/01 12:44:55;;;;;;;12.25;4.93;;;8.90;91.60;;;;;;5053093;28;20096;-65
2021/01/01 12:47:20;;;;;;;13.75;4.88;;;8.90;91.50;;;;;;5051517;28;20037;-67
2021/01/01 12:49:46;;;;;;;10.60;4.70;;;9.00;91.10;;;;;;5051326;28;20068;-69
2021/01/01 12:52:12;;;;;;;10.18;4.78;;;9.20;91.60;;;;;;5051577;28;20029;-70
2021/01/01 12:54:38;;;;;;;9.98;3.95;;;9.30;91.70;;;;;;5051603;28;20037;-69
2021/01/01 12:57:04;;;;;;;10.73;4.18;;;9.40;91.10;;;;;;5053112;28;20350;-70
2021/01/01 12:59:29;;;;;;;11.25;4.97;;;9.50;91.10;;;;;;5051448;28;20040;-71
2021/01/01 13:01:55;;;;;;;10.27;4.55;;;9.50;91.10;;;;;;5052977;28;20043;-70
2021/01/01 13:04:21;;;;;;;8.20;4.63;;;9.60;91.20;;;;;;5055101;28;20043;-69
2021/01/01 13:06:46;;;;;;;5.72;3.15;;;9.70;90.60;;;;;;5055121;28;20033;-70
2021/01/01 13:09:12;;;;;;;9.43;3.78;;;9.60;90.10;;;;;;5055446;28;20083;-68
2021/01/01 13:11:47;;;;;;;11.00;2.92;;;9.50;90.30;;;;;;5056863;28;20028;-69
2021/01/01 13:14:13;;;;;;;7.03;2.65;;;9.60;89.70;;;;;;5055189;28;20044;-67
2021/01/01 13:16:39;;;;;;;7.22;2.65;;;9.60;89.60;;;;;;5054954;28;20463;-67
2021/01/01 13:19:05;;;;;;;7.75;2.42;;;9.20;89.40;;;;;;5054335;28;20047;-67
2021/01/01 13:21:33;;;;;;;6.93;2.22;;;9.00;89.30;;;;;;5054762;28;20049;-66
2021/01/01 13:24:00;;;;;;;4.95;2.53;;;8.70;89.70;;;;;;5056395;28;20029;-67
2021/01/01 13:26:27;;;;;;;4.25;2.53;;;8.40;89.60;;;;;;5054840;28;20473;-68
2021/01/01 13:28:54;;;;;;;6.35;2.55;;;8.40;90.30;;;;;;5069153;28;20048;-67
2021/01/01 13:31:21;;;;;;;8.80;3.10;;;8.30;90.50;;;;;;5074511;28;20064;-68
2021/01/01 13:33:47;;;;;;;6.68;3.70;;;8.50;90.80;;;;;;5074851;28;20257;-66
2021/01/01 13:36:18;;;;;;;8.50;3.80;;;8.40;90.40;;;;;;5074481;28;20394;-68
2021/01/01 13:38:45;;;;;;;9.65;3.75;;;8.50;90.60;;;;;;5075088;28;20032;-68
2021/01/01 13:41:13;;;;;;;7.70;3.90;;;8.20;90.50;;;;;;5074453;28;20167;-72
2021/01/01 13:43:43;;;;;;;7.90;3.72;;;8.30;90.60;;;;;;5073163;28;20123;-69
2021/01/01 13:46:09;;;;;;;8.07;4.28;;;8.10;90.60;;;;;;5074257;28;20066;-70
2021/01/01 13:48:36;;;;;;;10.30;4.70;;;8.10;90.90;;;;;;5074209;28;20107;-68
2021/01/01 13:51:03;;;;;;;8.98;4.15;;;7.90;91.10;;;;;;5076047;28;20038;-68